createdAt,value
2019-01-03T00:02:41.459Z,94355.14
2019-01-03T00:05:37.166Z,94352.39
2019-01-03T00:08:31.628Z,94349.22
2019-01-03T00:11:19.922Z,94360.66
2019-01-03T00:14:12.618Z,94357.30
2019-01-03T00:17:00.548Z,94361.38
2019-01-03T00:19:48.634Z,94373.00
2019-01-03T00:22:41.151Z,94364.92
2019-01-03T00:25:29.108Z,94370.96
2019-01-03T00:28:36.059Z,94366.34
2019-01-03T00:31:34.653Z,94367.42
2019-01-03T00:34:23.339Z,94369.19
2019-01-03T00:37:13.622Z,94372.51
2019-01-03T00:40:03.311Z,94380.02
2019-01-03T00:42:51.365Z,94379.70
2019-01-03T00:45:39.801Z,94376.89
2019-01-03T00:48:34.947Z,94373.28
2019-01-03T00:51:22.872Z,94383.76
2019-01-03T00:54:16.545Z,94087.05
2019-01-03T00:57:08.849Z,94377.09
2019-01-03T01:00:07.215Z,94382.22
2019-01-03T01:02:53.610Z,94376.72
2019-01-03T01:05:41.657Z,94382.13
2019-01-03T01:08:39.652Z,94373.66
2019-01-03T01:11:30.643Z,94369.80
2019-01-03T01:14:19.231Z,94363.71
2019-01-03T01:17:20.252Z,94362.28
2019-01-03T01:20:15.997Z,94361.06
2019-01-03T01:23:05.200Z,94352.80
2019-01-03T01:25:53.829Z,94353.06
2019-01-03T01:28:58.205Z,94361.86
2019-01-03T01:32:02.552Z,94357.20
2019-01-03T01:34:51.034Z,94353.94
2019-01-03T01:37:43.509Z,94354.06
2019-01-03T01:40:32.721Z,94346.77
2019-01-03T01:43:22.026Z,94351.84
2019-01-03T01:46:10.272Z,94351.44
2019-01-03T01:49:11.908Z,94352.65
2019-01-03T01:52:10.010Z,94348.80
2019-01-03T01:55:02.245Z,94345.61
2019-01-03T01:58:03.585Z,94343.64
2019-01-03T02:00:51.610Z,94347.59
2019-01-03T02:03:50.206Z,94062.73
2019-01-03T02:06:32.009Z,94333.94
2019-01-03T02:09:19.412Z,94328.06
2019-01-03T02:12:11.461Z,94326.61
2019-01-03T02:14:55.776Z,94328.03
2019-01-03T02:17:44.258Z,94329.48
2019-01-03T02:20:35.589Z,94324.91
2019-01-03T02:23:37.201Z,94317.95
2019-01-03T02:26:38.758Z,94320.80
2019-01-03T02:29:26.458Z,94323.63
2019-01-03T02:32:11.049Z,94322.95
2019-01-03T02:34:59.671Z,94321.23
2019-01-03T02:37:47.737Z,94320.33
2019-01-03T02:40:41.528Z,94323.01
2019-01-03T02:43:37.297Z,94316.80
2019-01-03T02:46:35.804Z,94315.80
2019-01-03T02:49:25.629Z,94315.94
2019-01-03T02:52:13.883Z,94311.91
2019-01-03T02:55:03.514Z,94314.17
2019-01-03T02:58:01.813Z,94312.02
2019-01-03T03:00:53.688Z,94328.03
2019-01-03T03:03:58.635Z,94323.32
2019-01-03T03:06:46.576Z,94321.55
2019-01-03T03:09:34.607Z,94327.66
2019-01-03T03:12:27.001Z,94330.15
2019-01-03T03:15:28.582Z,94330.39
2019-01-03T03:18:12.355Z,94336.63
2019-01-03T03:21:01.564Z,94332.47
2019-01-03T03:23:57.447Z,94329.80
2019-01-03T03:26:49.828Z,94327.34
2019-01-03T03:29:48.296Z,94328.59
2019-01-03T03:32:36.239Z,94329.72
2019-01-03T03:35:36.662Z,94329.30
2019-01-03T03:38:28.950Z,94333.92
2019-01-03T03:41:18.348Z,94337.97
2019-01-03T03:44:14.146Z,94334.55
2019-01-03T03:47:00.676Z,94342.47
2019-01-03T03:50:08.227Z,94348.96
2019-01-03T03:53:09.712Z,94340.41
2019-01-03T03:55:59.163Z,94346.59
2019-01-03T03:58:47.106Z,94349.74
2019-01-03T04:01:45.820Z,94353.37
2019-01-03T04:04:47.234Z,94362.20
2019-01-03T04:07:37.253Z,94363.03
2019-01-03T04:10:25.465Z,94356.59
2019-01-03T04:13:14.980Z,94363.86
2019-01-03T04:16:03.716Z,94363.70
2019-01-03T04:18:53.305Z,94372.48
2019-01-03T04:21:45.670Z,94361.64
2019-01-03T04:24:35.265Z,94366.95
2019-01-03T04:27:23.320Z,94370.55
2019-01-03T04:30:18.825Z,94369.21
2019-01-03T04:33:08.378Z,94371.08
2019-01-03T04:35:56.960Z,94377.78
2019-01-03T04:38:49.558Z,94372.15
2019-01-03T04:41:31.866Z,94374.30
2019-01-03T04:44:36.293Z,94365.67
2019-01-03T04:47:23.446Z,94372.94
2019-01-03T04:50:11.608Z,94367.98
2019-01-03T04:53:07.391Z,94381.06
2019-01-03T04:55:59.598Z,94385.00
2019-01-03T04:58:47.794Z,94383.05
2019-01-03T05:02:03.942Z,94380.77
2019-01-03T05:04:59.786Z,94389.73
2019-01-03T05:07:47.701Z,94380.47
2019-01-03T05:10:37.296Z,94390.79
2019-01-03T05:13:32.831Z,94398.04
2019-01-03T05:16:21.225Z,94400.08
2019-01-03T05:19:09.034Z,94405.22
2019-01-03T05:22:01.575Z,94401.53
2019-01-03T05:25:08.750Z,94404.91
2019-01-03T05:28:11.968Z,94420.83
2019-01-03T05:31:04.382Z,94417.18
2019-01-03T05:33:52.628Z,94417.22
2019-01-03T05:36:34.904Z,94419.71
2019-01-03T05:39:25.642Z,94419.48
2019-01-03T05:42:14.889Z,94425.84
2019-01-03T05:45:09.281Z,94415.85
2019-01-03T05:48:07.727Z,94415.14
2019-01-03T05:51:12.344Z,94416.81
2019-01-03T05:54:00.574Z,94424.66
2019-01-03T06:00:27.937Z,94435.87
2019-01-03T06:03:18.102Z,94434.80
2019-01-03T06:06:08.002Z,94436.34
2019-01-03T06:09:06.286Z,94459.41
2019-01-03T06:11:49.825Z,94436.30
2019-01-03T06:14:42.444Z,94432.39
2019-01-03T06:17:30.660Z,94434.59
2019-01-03T06:20:38.532Z,94442.38
2019-01-03T06:23:29.962Z,94446.65
2019-01-03T06:26:19.281Z,94441.33
2019-01-03T06:29:23.784Z,94441.26
2019-01-03T06:32:29.551Z,94447.72
2019-01-03T06:35:19.379Z,94450.13
2019-01-03T06:38:18.191Z,94460.37
2019-01-03T06:41:06.309Z,94457.80
2019-01-03T06:43:59.696Z,94458.81
2019-01-03T06:47:00.100Z,94454.34
2019-01-03T06:49:47.981Z,94465.00
2019-01-03T06:52:35.056Z,94474.09
2019-01-03T06:55:39.418Z,94475.59
2019-01-03T06:58:28.892Z,94478.52
2019-01-03T07:01:36.739Z,94483.47
2019-01-03T07:04:25.219Z,94484.22
2019-01-03T07:07:14.822Z,94495.70
2019-01-03T07:10:08.400Z,94498.16
2019-01-03T07:12:56.439Z,94494.39
2019-01-03T07:15:44.853Z,94500.45
2019-01-03T07:18:29.913Z,94504.73
2019-01-03T07:21:27.381Z,94508.05
2019-01-03T07:24:33.896Z,94507.30
2019-01-03T07:27:23.741Z,94515.16
2019-01-03T07:30:19.095Z,94511.89
2019-01-03T07:33:14.671Z,94509.41
2019-01-03T07:36:02.863Z,94515.25
2019-01-03T07:38:51.584Z,94522.95
2019-01-03T07:41:41.828Z,94509.85
2019-01-03T07:44:34.833Z,94521.66
2019-01-03T07:47:30.914Z,94526.36
2019-01-03T07:50:29.124Z,94514.77
2019-01-03T07:53:21.159Z,94520.20
2019-01-03T07:56:25.922Z,94537.14
2019-01-03T07:59:17.345Z,94528.64
2019-01-03T08:02:12.832Z,94526.67
2019-01-03T08:05:01.318Z,94530.69
2019-01-03T08:07:53.997Z,94533.63
2019-01-03T08:10:42.028Z,94527.81
2019-01-03T08:13:37.142Z,94525.62
2019-01-03T08:16:29.335Z,94541.25
2019-01-03T08:19:19.177Z,94539.34
2019-01-03T08:22:06.919Z,94532.22
2019-01-03T08:25:02.236Z,94527.53
2019-01-03T08:27:50.037Z,94527.95
2019-01-03T08:30:37.207Z,94533.16
2019-01-03T08:33:22.756Z,94535.03
2019-01-03T08:36:25.059Z,94532.36
2019-01-03T08:39:17.251Z,94539.22
2019-01-03T08:42:10.157Z,94535.55
2019-01-03T08:44:58.594Z,94533.39
2019-01-03T08:47:53.468Z,94537.66
2019-01-03T08:50:34.589Z,94529.94
2019-01-03T08:53:21.782Z,94539.80
2019-01-03T08:56:23.087Z,94543.75
2019-01-03T08:59:12.537Z,94525.14
2019-01-03T09:02:00.965Z,94525.50
2019-01-03T09:04:49.029Z,94509.54
2019-01-03T09:07:51.176Z,94510.63
2019-01-03T09:10:46.481Z,94506.29
2019-01-03T09:13:54.825Z,94508.67
2019-01-03T09:16:50.694Z,94505.86
2019-01-03T09:19:38.739Z,94488.77
2019-01-03T09:22:34.148Z,94490.18
2019-01-03T09:25:29.843Z,94483.73
2019-01-03T09:28:26.537Z,94485.16
2019-01-03T09:31:14.882Z,94475.73
2019-01-03T09:34:07.125Z,94482.87
2019-01-03T09:36:53.858Z,94477.95
2019-01-03T09:39:41.664Z,94473.06
2019-01-03T09:42:40.597Z,94470.07
2019-01-03T09:45:11.109Z,94466.31
2019-01-03T09:47:41.713Z,94457.59
2019-01-03T09:50:12.199Z,94455.52
2019-01-03T09:52:42.747Z,94449.89
2019-01-03T09:55:13.069Z,94455.77
2019-01-03T09:57:43.500Z,94442.83
2019-01-03T10:00:14.018Z,94440.59
2019-01-03T10:02:44.925Z,94448.29
2019-01-03T10:05:15.394Z,94442.53
2019-01-03T10:07:46.179Z,94444.92
2019-01-03T10:10:17.059Z,94447.08
2019-01-03T10:12:48.076Z,94447.36
2019-01-03T10:15:18.520Z,94445.96
2019-01-03T10:17:49.175Z,94444.53
2019-01-03T10:20:19.709Z,94437.15
2019-01-03T10:22:50.009Z,94431.30
2019-01-03T10:25:20.425Z,94430.83
2019-01-03T10:27:50.771Z,94431.91
2019-01-03T10:30:21.442Z,94430.34
2019-01-03T10:32:51.806Z,94425.48
2019-01-03T10:35:22.551Z,94413.86
2019-01-03T10:37:53.139Z,94417.67
2019-01-03T10:40:23.693Z,94415.23
2019-01-03T10:42:54.011Z,94414.69
2019-01-03T10:45:24.611Z,94409.03
2019-01-03T10:47:54.940Z,94405.41
2019-01-03T10:50:25.400Z,94399.80
2019-01-03T10:52:55.767Z,94404.41
2019-01-03T10:55:27.333Z,94397.71
2019-01-03T10:57:57.699Z,94394.30
2019-01-03T11:00:28.472Z,94388.98
2019-01-03T11:02:59.177Z,94386.96
2019-01-03T11:05:29.833Z,94391.20
2019-01-03T11:08:00.106Z,94391.60
2019-01-03T11:10:30.577Z,94383.77
2019-01-03T11:13:01.234Z,94388.75
2019-01-03T11:15:31.829Z,94384.54
2019-01-03T11:18:02.100Z,94383.41
2019-01-03T11:20:32.753Z,94385.77
2019-01-03T11:23:03.109Z,94375.69
2019-01-03T11:25:33.574Z,94378.75
2019-01-03T11:28:03.998Z,94371.83
2019-01-03T11:30:34.548Z,94370.49
2019-01-03T11:33:05.223Z,94367.02
2019-01-03T11:35:35.654Z,94362.04
2019-01-03T11:38:06.305Z,94362.16
2019-01-03T11:40:36.948Z,94362.66
2019-01-03T11:43:07.956Z,94360.30
2019-01-03T11:45:38.262Z,94360.80
2019-01-03T11:48:08.884Z,94358.89
2019-01-03T11:50:39.245Z,94361.80
2019-01-03T11:53:09.759Z,94363.41
2019-01-03T11:55:40.238Z,94367.86
2019-01-03T11:58:14.330Z,94366.78
2019-01-03T12:00:44.585Z,94368.34
2019-01-03T12:03:15.287Z,94368.70
2019-01-03T12:05:45.841Z,94366.38
2019-01-03T12:08:16.437Z,94370.43
2019-01-03T12:10:46.708Z,94379.78
2019-01-03T12:13:17.610Z,94371.78
2019-01-03T12:15:48.116Z,94382.88
2019-01-03T12:18:18.649Z,94394.14
2019-01-03T12:20:49.067Z,94389.77
2019-01-03T12:23:19.475Z,94399.28
2019-01-03T12:25:49.857Z,94396.33
2019-01-03T12:28:20.688Z,94394.68
2019-01-03T12:30:51.245Z,94396.09
2019-01-03T12:33:21.857Z,94397.55
2019-01-03T12:35:52.293Z,94396.83
2019-01-03T12:38:23.920Z,94391.25
2019-01-03T12:40:54.638Z,94396.59
2019-01-03T12:43:25.716Z,94401.96
2019-01-03T12:45:57.067Z,94397.94
2019-01-03T12:48:27.999Z,94401.30
2019-01-03T12:50:58.372Z,94398.67
2019-01-03T12:53:28.684Z,94396.21
2019-01-03T12:55:59.101Z,94404.28
2019-01-03T12:58:29.731Z,94399.98
2019-01-03T13:01:00.039Z,94400.20
2019-01-03T13:03:30.333Z,94400.61
2019-01-03T13:06:01.150Z,94398.48
2019-01-03T13:08:31.478Z,94402.14
2019-01-03T13:11:01.864Z,94415.36
2019-01-03T13:13:32.593Z,94406.64
2019-01-03T13:16:03.069Z,94408.81
2019-01-03T13:18:33.669Z,94402.90
2019-01-03T13:21:03.993Z,94413.03
2019-01-03T13:23:34.269Z,94408.80
2019-01-03T13:26:04.946Z,94411.25
2019-01-03T13:28:35.273Z,94414.04
2019-01-03T13:31:05.616Z,94409.73
2019-01-03T13:33:36.225Z,94407.69
2019-01-03T13:36:07.155Z,94408.59
2019-01-03T13:38:37.446Z,94409.30
2019-01-03T13:41:08.126Z,94404.06
2019-01-03T13:43:38.894Z,94395.20
2019-01-03T13:46:09.503Z,94392.55
2019-01-03T13:48:39.767Z,94390.94
2019-01-03T13:51:10.433Z,94382.13
2019-01-03T13:53:41.192Z,94389.04
2019-01-03T13:56:11.607Z,94389.82
2019-01-03T13:58:42.107Z,94399.89
2019-01-03T14:01:12.670Z,94410.88
2019-01-03T14:03:43.300Z,94404.43
2019-01-03T14:06:13.721Z,94405.27
2019-01-03T14:08:44.362Z,94403.61
2019-01-03T14:11:14.728Z,94399.68
2019-01-03T14:13:45.454Z,94397.94
2019-01-03T14:16:15.775Z,94393.84
2019-01-03T14:18:46.065Z,94396.40
2019-01-03T14:21:17.075Z,94392.34
2019-01-03T14:23:48.544Z,94390.66
2019-01-03T14:26:19.257Z,94390.91
2019-01-03T14:28:50.022Z,94387.54
2019-01-03T14:31:20.810Z,94389.97
2019-01-03T14:33:51.077Z,94392.89
2019-01-03T14:36:21.791Z,94392.38
2019-01-03T14:38:52.463Z,94390.17
2019-01-03T14:41:22.909Z,94382.95
2019-01-03T14:43:53.451Z,94388.27
2019-01-03T14:46:24.919Z,94391.84
2019-01-03T14:48:55.898Z,94393.05
2019-01-03T14:51:26.540Z,94395.19
2019-01-03T14:53:56.985Z,94403.44
2019-01-03T14:56:27.398Z,94412.36
2019-01-03T14:58:58.317Z,94411.22
2019-01-03T15:01:28.597Z,94415.66
2019-01-03T15:03:59.175Z,94409.33
2019-01-03T15:06:29.545Z,94415.05
2019-01-03T15:09:00.248Z,94427.18
2019-01-03T15:11:30.591Z,94451.83
2019-01-03T15:14:01.723Z,94420.02
2019-01-03T15:16:32.191Z,94429.74
2019-01-03T15:19:02.949Z,94432.05
2019-01-03T15:21:33.221Z,94425.48
2019-01-03T15:24:03.642Z,94431.00
2019-01-03T15:26:34.280Z,94430.48
2019-01-03T15:29:04.570Z,94429.25
2019-01-03T15:31:35.215Z,94427.22
2019-01-03T15:34:05.760Z,94428.86
2019-01-03T15:36:36.553Z,94439.01
2019-01-03T15:39:07.133Z,94440.77
2019-01-03T15:41:37.517Z,94437.77
2019-01-03T15:44:08.432Z,94433.57
2019-01-03T15:46:38.770Z,94444.72
2019-01-03T15:49:09.714Z,94439.30
2019-01-03T15:51:39.991Z,94441.25
2019-01-03T15:54:10.672Z,94442.72
2019-01-03T15:56:41.195Z,94436.68
2019-01-03T15:59:11.744Z,94428.59
2019-01-03T16:01:42.425Z,94440.20
2019-01-03T16:04:13.323Z,94458.80
2019-01-03T16:06:43.640Z,94463.69
2019-01-03T16:09:15.413Z,94446.26
2019-01-03T16:11:45.975Z,94453.77
2019-01-03T16:14:20.283Z,94458.80
2019-01-03T16:16:50.615Z,94452.97
2019-01-03T16:19:21.482Z,94461.09
2019-01-03T16:21:51.763Z,94462.52
2019-01-03T16:24:22.475Z,94447.52
2019-01-03T16:26:53.223Z,94465.56
2019-01-03T16:29:23.702Z,94475.06
2019-01-03T16:31:54.044Z,94463.38
2019-01-03T16:34:24.657Z,94446.55
2019-01-03T16:36:55.295Z,94477.13
2019-01-03T16:39:25.570Z,94479.53
2019-01-03T16:41:56.252Z,94479.36
2019-01-03T16:44:27.024Z,94492.14
2019-01-03T16:46:57.344Z,94490.72
2019-01-03T16:49:28.169Z,94478.58
2019-01-03T16:51:59.025Z,94469.38
2019-01-03T16:54:29.301Z,94493.41
2019-01-03T16:56:59.974Z,94486.88
2019-01-03T16:59:30.261Z,94462.50
2019-01-03T17:02:01.044Z,94509.28
2019-01-03T17:04:31.586Z,94502.88
2019-01-03T17:07:02.197Z,94181.88
2019-01-03T17:09:32.898Z,94497.14
2019-01-03T17:12:03.571Z,94507.19
2019-01-03T17:14:34.038Z,94511.81
2019-01-03T17:17:04.530Z,94502.90
2019-01-03T17:19:35.333Z,94521.06
2019-01-03T17:22:05.637Z,94508.17
2019-01-03T17:24:36.447Z,94502.59
2019-01-03T17:27:06.754Z,94513.13
2019-01-03T17:29:37.426Z,94500.04
2019-01-03T17:32:08.015Z,94513.74
2019-01-03T17:34:38.366Z,94524.78
2019-01-03T17:37:08.790Z,94525.23
2019-01-03T17:39:39.711Z,94536.37
2019-01-03T17:42:10.080Z,94524.29
2019-01-03T17:44:40.777Z,94543.44
2019-01-03T17:47:11.594Z,94545.19
2019-01-03T17:49:41.959Z,94556.69
2019-01-03T17:52:12.509Z,94534.50
2019-01-03T17:54:43.110Z,94537.05
2019-01-03T17:57:13.506Z,94545.49
2019-01-03T17:59:43.870Z,94541.34
2019-01-03T18:02:14.198Z,94547.09
2019-01-03T18:04:44.484Z,94529.99
2019-01-03T18:07:15.326Z,94550.09
2019-01-03T18:09:45.837Z,94554.08
2019-01-03T18:12:16.163Z,94550.43
2019-01-03T18:14:47.158Z,94553.28
2019-01-03T18:17:18.054Z,94547.22
2019-01-03T18:19:48.347Z,94541.47
2019-01-03T18:22:18.973Z,94536.34
2019-01-03T18:24:49.369Z,94543.70
2019-01-03T18:27:20.029Z,94548.52
2019-01-03T18:29:50.468Z,94542.92
2019-01-03T18:32:20.798Z,94545.15
2019-01-03T18:34:51.502Z,94544.05
2019-01-03T18:37:22.420Z,94554.58
2019-01-03T18:39:52.746Z,94553.45
2019-01-03T18:42:23.516Z,94561.73
2019-01-03T18:44:54.309Z,94567.02
2019-01-03T18:47:24.953Z,94550.25
2019-01-03T18:49:55.494Z,94554.38
2019-01-03T18:52:26.429Z,94560.78
2019-01-03T18:54:56.940Z,94555.98
2019-01-03T18:57:27.574Z,94569.70
2019-01-03T18:59:57.967Z,94571.14
2019-01-03T19:02:28.517Z,94584.88
2019-01-03T19:04:59.064Z,94562.38
2019-01-03T19:07:29.697Z,94570.69
2019-01-03T19:10:00.258Z,94578.31
2019-01-03T19:12:30.901Z,94581.67
2019-01-03T19:15:01.698Z,94570.81
2019-01-03T19:17:32.256Z,94577.07
2019-01-03T19:20:03.748Z,94577.69
2019-01-03T19:22:34.049Z,94581.30
2019-01-03T19:25:04.901Z,94576.71
2019-01-03T19:27:35.593Z,94577.39
2019-01-03T19:30:06.567Z,94576.23
2019-01-03T19:32:36.847Z,94596.61
2019-01-03T19:35:08.642Z,94588.19
2019-01-03T19:37:39.057Z,94585.82
2019-01-03T19:40:11.982Z,94579.44
2019-01-03T19:42:43.153Z,94588.66
2019-01-03T19:45:13.951Z,94579.69
2019-01-03T19:47:44.443Z,94575.73
2019-01-03T19:50:17.911Z,94583.41
2019-01-03T19:52:48.145Z,94589.13
2019-01-03T19:55:19.064Z,94586.00
2019-01-03T19:57:49.630Z,94582.61
2019-01-03T20:00:19.986Z,94587.24
2019-01-03T20:02:50.476Z,94570.95
2019-01-03T20:05:21.147Z,94572.23
2019-01-03T20:07:54.517Z,94576.86
2019-01-03T20:10:25.012Z,94582.32
2019-01-03T20:12:55.326Z,94583.42
2019-01-03T20:15:26.036Z,94600.94
2019-01-03T20:17:56.564Z,94589.97
2019-01-03T20:20:27.121Z,94580.75
2019-01-03T20:22:57.788Z,94581.08
2019-01-03T20:25:28.826Z,94580.09
2019-01-03T20:27:59.114Z,94583.89
2019-01-03T20:30:29.832Z,94588.52
2019-01-03T20:33:00.512Z,94592.34
2019-01-03T20:35:30.817Z,94585.31
2019-01-03T20:38:01.309Z,94604.91
2019-01-03T20:40:32.205Z,94593.15
2019-01-03T20:43:02.598Z,94599.16
2019-01-03T20:45:33.004Z,94594.53
2019-01-03T20:48:03.727Z,94592.62
2019-01-03T20:50:34.389Z,94602.22
2019-01-03T20:53:04.677Z,94610.86
2019-01-03T20:55:35.579Z,94605.58
2019-01-03T20:58:06.408Z,94603.83
2019-01-03T21:00:36.947Z,94609.58
2019-01-03T21:03:07.703Z,94602.97
2019-01-03T21:05:38.695Z,94608.73
2019-01-03T21:08:08.986Z,94599.70
2019-01-03T21:10:39.757Z,94605.34
2019-01-03T21:13:10.085Z,94604.77
2019-01-03T21:15:41.110Z,94600.42
2019-01-03T21:18:11.538Z,94603.02
2019-01-03T21:20:42.215Z,94600.23
2019-01-03T21:23:12.576Z,94596.41
2019-01-03T21:25:43.387Z,94594.90
2019-01-03T21:28:13.682Z,94286.61
2019-01-03T21:30:44.650Z,94598.72
2019-01-03T21:33:16.327Z,94612.17
2019-01-03T21:35:47.002Z,94608.55
2019-01-03T21:38:17.367Z,94600.00
2019-01-03T21:40:48.296Z,94601.60
2019-01-03T21:43:18.568Z,94606.52
2019-01-03T21:45:49.396Z,94617.29
2019-01-03T21:48:19.693Z,94616.10
2019-01-03T21:50:50.466Z,94612.28
2019-01-03T21:53:20.931Z,94614.03
2019-01-03T21:55:51.448Z,94607.18
2019-01-03T21:58:21.855Z,94613.36
2019-01-03T22:00:52.640Z,94611.14
2019-01-03T22:03:22.919Z,94621.50
2019-01-03T22:05:53.576Z,94622.81
2019-01-03T22:08:24.420Z,94628.10
2019-01-03T22:10:54.728Z,94631.36
2019-01-03T22:13:24.996Z,94634.01
2019-01-03T22:15:56.023Z,94635.44
2019-01-03T22:18:26.602Z,94637.69
2019-01-03T22:20:57.478Z,94640.77
2019-01-03T22:23:27.762Z,94647.13
2019-01-03T22:25:58.328Z,94650.22
2019-01-03T22:28:29.059Z,94649.50
2019-01-03T22:30:59.801Z,94657.45
2019-01-03T22:33:30.168Z,94656.53
2019-01-03T22:36:01.153Z,94659.37
2019-01-03T22:38:31.697Z,94660.23
2019-01-03T22:41:02.013Z,94663.97
2019-01-03T22:43:32.698Z,94657.95
2019-01-03T22:46:03.529Z,94657.63
2019-01-03T22:48:33.986Z,94671.22
2019-01-03T22:51:04.260Z,94664.84
2019-01-03T22:53:34.809Z,94662.30
2019-01-03T22:56:05.198Z,94668.18
2019-01-03T22:58:35.947Z,94674.77
2019-01-03T23:01:07.150Z,94673.11
2019-01-03T23:03:38.158Z,94671.44
2019-01-03T23:06:08.889Z,94670.34
2019-01-03T23:08:39.388Z,94678.50
2019-01-03T23:11:10.064Z,94668.86
2019-01-03T23:13:40.871Z,94672.48
2019-01-03T23:16:11.259Z,94672.69
2019-01-03T23:18:42.036Z,94686.38
2019-01-03T23:21:12.288Z,94673.13
2019-01-03T23:23:42.919Z,94680.97
2019-01-03T23:26:13.291Z,94676.91
2019-01-03T23:28:43.607Z,94682.63
2019-01-03T23:31:14.289Z,94684.20
2019-01-03T23:33:45.975Z,94678.31
2019-01-03T23:36:16.283Z,94683.53
2019-01-03T23:38:47.067Z,94688.03
2019-01-03T23:41:17.747Z,94686.27
2019-01-03T23:43:48.130Z,94696.97
2019-01-03T23:46:18.773Z,94689.88
2019-01-03T23:48:49.564Z,94708.65
2019-01-03T23:51:19.877Z,94703.98
2019-01-03T23:53:50.262Z,94697.02
2019-01-03T23:56:20.723Z,94698.04
2019-01-03T23:58:51.264Z,94703.00
